Time;durP1;ratioP1;P1;durP2;ratioP2;P2;SDS_P1;SDS_P2;PMS_P1;PMS_P2;Temp;Humidity;BMP_temperature;BMP_pressure;BME280_temperature;BME280_humidity;BME280_pressure;Samples;Min_cycle;Max_cycle;Signal;HPM_P1;HPM_P2
2021/11/06 00:00:19;;;;;;;27.60;14.30;;;;;;;8.81;61.00;99958.05;236009;1195;139089;-58
2021/11/06 00:05:42;;;;;;;30.00;15.30;;;;;;;8.77;60.99;99961.92;236488;1195;138925;-62
2021/11/06 00:10:46;;;;;;;28.80;15.80;;;;;;;8.70;61.07;99967.33;236452;1193;138419;-61
2021/11/06 00:15:50;;;;;;;27.40;15.40;;;;;;;8.67;61.13;99963.40;236629;1193;139643;-60
2021/11/06 00:20:53;;;;;;;27.50;15.50;;;;;;;8.69;61.26;99966.30;236612;1194;139642;-60
2021/11/06 00:25:56;;;;;;;24.20;14.90;;;;;;;8.72;61.38;99972.55;236533;1194;139098;-65
2021/11/06 00:30:59;;;;;;;24.30;14.80;;;;;;;8.74;61.54;99977.22;236529;1195;138750;-61
2021/11/06 00:36:02;;;;;;;31.20;16.40;;;;;;;8.78;61.50;99985.77;236497;1195;138951;-59
2021/11/06 00:41:05;;;;;;;30.80;15.70;;;;;;;8.80;61.37;99989.77;236186;1193;139163;-56
2021/11/06 00:46:08;;;;;;;29.10;15.90;;;;;;;8.82;61.39;99991.25;236482;1193;138789;-58
2021/11/06 00:51:11;;;;;;;26.10;16.40;;;;;;;8.82;61.30;99989.83;235895;1194;138408;-60
2021/11/06 00:56:14;;;;;;;27.50;16.40;;;;;;;8.79;61.29;99991.58;236485;1195;139685;-58
2021/11/06 01:01:17;;;;;;;28.60;15.60;;;;;;;8.75;61.17;99991.88;236326;1193;138775;-61
2021/11/06 01:06:22;;;;;;;25.90;15.60;;;;;;;8.69;61.29;99995.86;236596;1195;139115;-59
2021/11/06 01:11:25;;;;;;;31.00;16.40;;;;;;;8.60;61.23;100000.97;236539;1194;138282;-60
2021/11/06 01:16:28;;;;;;;28.90;15.80;;;;;;;8.52;61.43;100006.38;236344;1193;138986;-60
2021/11/06 01:21:31;;;;;;;28.10;15.70;;;;;;;8.51;61.41;100002.74;236325;1193;139971;-61
2021/11/06 01:26:35;;;;;;;26.20;15.30;;;;;;;8.52;61.54;100003.39;236578;1195;139070;-61
2021/11/06 01:31:38;;;;;;;27.80;14.70;;;;;;;8.51;61.70;99999.35;236358;1193;139463;-61
2021/11/06 01:36:41;;;;;;;27.20;16.10;;;;;;;8.44;61.47;100000.14;236537;1194;138363;-60
2021/11/06 01:41:44;;;;;;;24.30;14.80;;;;;;;8.37;61.62;100005.57;236306;1195;139474;-60
2021/11/06 01:46:47;;;;;;;27.20;14.60;;;;;;;8.32;61.73;100008.90;236619;1193;138872;-62
2021/11/06 01:51:53;;;;;;;23.40;14.40;;;;;;;8.25;61.86;100005.80;236319;1194;138848;-65
2021/11/06 01:56:56;;;;;;;;;;;;;;;8.18;61.96;100002.34;236349;1194;138880;-63
2021/11/06 02:01:59;;;;;;;19.80;13.70;;;;;;;8.12;62.01;100005.39;236696;1193;125345;-59
2021/11/06 02:07:03;;;;;;;24.00;14.40;;;;;;;8.06;62.19;100010.02;236519;1193;144332;-59
2021/11/06 02:12:07;;;;;;;22.30;14.30;;;;;;;8.04;62.45;100018.19;236093;1193;140686;-63
2021/11/06 02:17:10;;;;;;;24.10;15.20;;;;;;;8.08;62.51;100011.36;236258;1194;139213;-59
2021/11/06 02:22:13;;;;;;;22.70;15.10;;;;;;;8.07;62.59;100006.08;236496;1194;139837;-60
2021/11/06 02:27:21;;;;;;;25.40;16.90;;;;;;;8.07;62.81;100003.25;236768;1193;138450;-61
2021/11/06 02:32:24;;;;;;;25.70;16.80;;;;;;;8.05;62.66;100008.83;236458;1193;139233;-61
2021/11/06 02:37:27;;;;;;;26.30;16.30;;;;;;;8.05;62.80;100012.20;236414;1194;139092;-58
2021/11/06 02:42:30;;;;;;;24.60;16.20;;;;;;;8.04;62.91;100006.91;235888;1193;138831;-60
2021/11/06 02:47:33;;;;;;;23.40;16.20;;;;;;;8.03;62.93;100008.89;236083;1195;138723;-58
2021/11/06 02:52:40;;;;;;;23.20;15.70;;;;;;;7.97;62.89;100006.27;235745;1194;138870;-57
2021/11/06 02:57:43;;;;;;;26.50;15.10;;;;;;;7.92;63.17;100007.34;236351;1194;140307;-60
2021/11/06 03:02:47;;;;;;;20.60;14.00;;;;;;;7.92;63.09;100009.48;236577;1194;139811;-60
2021/11/06 03:07:50;;;;;;;21.50;13.40;;;;;;;7.93;63.33;100012.60;236557;1193;140190;-60
2021/11/06 03:12:54;;;;;;;20.50;13.20;;;;;;;7.95;63.46;100013.96;236648;1193;139022;-60
2021/11/06 03:17:57;;;;;;;22.10;13.90;;;;;;;7.93;63.35;100025.16;236572;1193;138854;-59
2021/11/06 03:23:00;;;;;;;20.40;13.50;;;;;;;7.94;63.42;100031.48;236441;1194;140329;-60
2021/11/06 03:28:03;;;;;;;19.60;12.50;;;;;;;7.90;63.35;100029.67;236585;1194;139510;-61
2021/11/06 03:33:06;;;;;;;18.70;12.40;;;;;;;7.82;63.37;100037.02;236490;1193;139551;-60
2021/11/06 03:38:10;;;;;;;18.10;12.50;;;;;;;7.78;63.49;100039.98;235960;1194;138977;-58
2021/11/06 03:43:13;;;;;;;16.30;10.30;;;;;;;7.76;63.51;100046.59;236537;1193;139966;-60
2021/11/06 03:48:16;;;;;;;15.50;10.40;;;;;;;7.72;63.58;100051.66;236280;1193;141417;-59
2021/11/06 03:53:19;;;;;;;14.50;10.90;;;;;;;7.72;63.55;100057.68;235321;1195;139526;-61
2021/11/06 03:58:22;;;;;;;14.90;10.50;;;;;;;7.70;63.69;100056.66;236522;1194;139551;-60
2021/11/06 04:03:26;;;;;;;15.30;11.30;;;;;;;7.68;63.71;100059.06;236735;1193;139087;-60
2021/11/06 04:08:29;;;;;;;14.30;10.40;;;;;;;7.65;63.69;100064.60;236370;1194;139067;-61
2021/11/06 04:13:32;;;;;;;15.20;10.30;;;;;;;7.59;63.73;100070.11;236650;1193;140180;-59
2021/11/06 04:18:35;;;;;;;18.90;10.90;;;;;;;7.54;63.80;100067.64;235974;1193;139234;-61
2021/11/06 04:23:38;;;;;;;16.20;11.30;;;;;;;7.52;63.79;100070.70;236077;1194;139110;-61
2021/11/06 04:28:41;;;;;;;13.00;10.30;;;;;;;7.52;63.94;100072.50;236568;1194;140656;-60
2021/11/06 04:33:44;;;;;;;14.20;10.10;;;;;;;7.49;63.82;100079.80;236191;1194;139685;-63
2021/11/06 04:38:48;;;;;;;108.30;72.30;;;;;;;7.50;64.04;100085.77;236580;1194;139987;-61
2021/11/06 04:43:52;;;;;;;23.50;17.10;;;;;;;7.69;64.43;100090.62;236446;1193;139059;-57
2021/11/06 04:48:55;;;;;;;17.50;11.60;;;;;;;7.82;64.24;100096.39;236321;1194;139784;-60
2021/11/06 04:53:58;;;;;;;15.40;11.20;;;;;;;7.82;64.03;100094.96;236411;1193;138843;-60
2021/11/06 04:59:01;;;;;;;14.60;10.80;;;;;;;7.78;63.76;100098.60;236326;1193;139851;-61
2021/11/06 05:04:04;;;;;;;14.10;11.10;;;;;;;7.73;63.91;100103.91;236542;1193;139739;-60
2021/11/06 05:09:07;;;;;;;17.50;12.10;;;;;;;7.68;63.77;100105.34;236400;1193;138255;-61
2021/11/06 05:14:11;;;;;;;17.70;11.20;;;;;;;7.69;63.93;100108.48;236514;1194;138999;-60
2021/11/06 05:19:15;;;;;;;25.00;16.20;;;;;;;7.79;64.31;100112.18;236215;1194;139606;-61
2021/11/06 05:24:18;;;;;;;16.00;11.90;;;;;;;7.94;64.36;100119.46;236200;1193;139289;-59
2021/11/06 05:29:21;;;;;;;17.80;11.40;;;;;;;7.96;63.93;100120.65;236714;1193;141237;-61
2021/11/06 05:34:24;;;;;;;17.70;10.40;;;;;;;7.88;63.66;100122.50;236641;1193;141648;-58
2021/11/06 05:39:27;;;;;;;16.90;11.40;;;;;;;7.76;63.64;100122.19;236212;1193;138821;-63
2021/11/06 05:44:31;;;;;;;16.00;10.80;;;;;;;7.68;63.91;100126.34;235887;1194;139129;-61
2021/11/06 05:49:34;;;;;;;17.70;10.90;;;;;;;7.65;63.89;100126.63;236498;1193;139395;-60
2021/11/06 05:54:37;;;;;;;18.10;10.70;;;;;;;7.63;64.03;100135.34;235226;1187;138581;-61
2021/11/06 05:59:40;;;;;;;16.10;9.60;;;;;;;7.62;64.13;100133.77;236632;1193;139752;-61
2021/11/06 06:04:43;;;;;;;16.20;9.80;;;;;;;7.65;64.08;100143.75;235749;1194;139974;-61
2021/11/06 06:09:46;;;;;;;15.50;9.60;;;;;;;7.69;64.11;100149.25;236451;1193;139549;-62
2021/11/06 06:14:49;;;;;;;14.90;9.70;;;;;;;7.69;64.13;100153.73;236027;1194;139236;-62
2021/11/06 06:19:53;;;;;;;13.40;9.90;;;;;;;7.70;64.05;100159.48;236329;1195;139456;-61
2021/11/06 06:24:56;;;;;;;14.80;9.90;;;;;;;7.72;64.21;100158.52;236153;1193;140220;-62
2021/11/06 06:29:59;;;;;;;16.80;9.40;;;;;;;7.73;64.14;100158.34;236494;1193;138602;-63
2021/11/06 06:35:02;;;;;;;13.60;9.40;;;;;;;7.74;63.90;100168.19;236549;1193;138875;-62
2021/11/06 06:40:08;;;;;;;15.80;9.20;;;;;;;7.76;64.14;100172.88;236523;1194;139191;-63
2021/11/06 06:45:11;;;;;;;14.30;8.90;;;;;;;7.86;64.00;100174.86;236740;1193;140488;-62
2021/11/06 06:50:15;;;;;;;13.30;8.70;;;;;;;7.97;64.02;100183.52;235890;1193;138995;-59
2021/11/06 06:55:19;;;;;;;11.40;8.40;;;;;;;8.02;63.89;100186.16;236164;1193;138844;-60
2021/11/06 07:00:22;;;;;;;11.50;8.50;;;;;;;8.05;63.73;100193.86;236447;1193;138646;-62
2021/11/06 07:05:25;;;;;;;14.60;9.70;;;;;;;8.09;63.71;100195.33;236551;1193;138534;-60
2021/11/06 07:10:28;;;;;;;15.70;8.90;;;;;;;8.15;63.77;100200.59;235283;1193;138723;-61
2021/11/06 07:15:31;;;;;;;16.40;9.80;;;;;;;8.16;63.38;100202.48;236564;1193;138462;-60
2021/11/06 07:20:34;;;;;;;14.30;9.30;;;;;;;8.18;63.45;100201.72;236327;1193;138531;-61
2021/11/06 07:25:37;;;;;;;13.40;9.50;;;;;;;8.22;63.48;100205.48;236520;1194;141450;-62
2021/11/06 07:30:40;;;;;;;12.40;9.10;;;;;;;8.32;63.45;100205.48;236365;1193;139510;-61
2021/11/06 07:35:43;;;;;;;17.90;9.90;;;;;;;8.41;63.16;100203.27;236157;1193;139321;-63
2021/11/06 07:40:47;;;;;;;13.70;10.30;;;;;;;8.46;63.21;100207.52;236060;1193;138850;-66
2021/11/06 07:45:50;;;;;;;14.20;9.60;;;;;;;8.52;63.06;100211.73;236600;1193;138978;-63
2021/11/06 07:50:53;;;;;;;12.70;9.50;;;;;;;8.56;62.90;100216.58;235072;1193;139283;-64
2021/11/06 07:55:56;;;;;;;12.80;9.20;;;;;;;8.51;62.53;100219.04;236243;1195;140364;-61
2021/11/06 08:01:00;;;;;;;11.50;9.00;;;;;;;8.50;62.67;100225.09;236313;1190;139796;-62
2021/11/06 08:06:05;;;;;;;15.20;9.20;;;;;;;8.47;62.46;100228.17;236442;1193;138670;-62
2021/11/06 08:11:08;;;;;;;18.40;9.20;;;;;;;8.47;62.47;100229.77;236439;1193;138530;-60
2021/11/06 08:16:11;;;;;;;13.70;9.30;;;;;;;8.48;62.50;100233.63;236148;1193;138520;-62
2021/11/06 08:21:14;;;;;;;12.20;8.90;;;;;;;8.49;62.29;100236.98;236702;1193;138675;-61
2021/11/06 08:26:17;;;;;;;10.80;8.10;;;;;;;8.55;62.45;100241.54;236578;1193;139141;-62
2021/11/06 08:31:21;;;;;;;12.60;7.80;;;;;;;8.63;62.30;100251.88;236603;1193;139252;-62
2021/11/06 08:36:24;;;;;;;11.40;7.60;;;;;;;8.70;62.12;100245.60;236534;1193;139100;-63
2021/11/06 08:41:29;;;;;;;12.80;8.40;;;;;;;8.81;62.35;100246.63;236406;1193;138827;-61
2021/11/06 08:46:32;;;;;;;13.00;7.70;;;;;;;8.95;62.13;100243.49;236604;1193;138435;-62
2021/11/06 08:51:35;;;;;;;13.50;8.00;;;;;;;9.06;61.96;100255.84;236552;1193;138936;-65
2021/11/06 08:56:39;;;;;;;12.80;8.00;;;;;;;9.17;61.88;100250.48;236635;1194;138801;-65
2021/11/06 09:01:43;;;;;;;12.00;7.70;;;;;;;9.28;61.78;100247.42;236548;1194;138728;-66
2021/11/06 09:06:47;;;;;;;12.80;8.10;;;;;;;9.39;61.46;100247.16;236469;1193;140526;-61
2021/11/06 09:11:53;;;;;;;10.80;7.50;;;;;;;9.46;61.27;100240.34;235562;1193;138904;-61
2021/11/06 09:16:56;;;;;;;;;;;;;;;9.54;61.31;100243.09;236596;1193;138695;-63
2021/11/06 09:21:59;;;;;;;11.50;6.90;;;;;;;9.57;61.06;100248.09;236155;1193;126800;-61
2021/11/06 09:27:03;;;;;;;89.90;56.60;;;;;;;9.58;60.80;100251.21;236736;1193;139871;-60
2021/11/06 09:32:10;;;;;;;11.70;7.90;;;;;;;9.68;60.79;100252.27;236556;1195;139061;-61
2021/11/06 09:37:14;;;;;;;10.70;7.10;;;;;;;9.79;60.80;100253.08;236346;1195;139079;-63
2021/11/06 09:42:17;;;;;;;9.90;7.00;;;;;;;9.86;60.36;100246.41;236276;1195;138936;-60
2021/11/06 09:47:20;;;;;;;9.40;6.20;;;;;;;9.94;60.14;100249.83;236462;1193;138538;-61
2021/11/06 09:52:24;;;;;;;12.10;6.50;;;;;;;10.04;60.21;100254.20;236401;1193;138218;-62
2021/11/06 09:57:27;;;;;;;120.20;75.10;;;;;;;10.19;59.91;100244.03;236720;1193;139427;-61
2021/11/06 10:02:30;;;;;;;14.10;9.00;;;;;;;10.34;59.74;100237.39;235777;1193;140287;-60
2021/11/06 10:07:33;;;;;;;8.80;6.20;;;;;;;10.50;59.48;100225.20;236432;1193;139496;-60
2021/11/06 10:13:02;;;;;;;6.70;4.70;;;;;;;10.64;59.37;100227.42;235617;1193;138490;-61
2021/11/06 10:18:13;;;;;;;7.30;4.30;;;;;;;10.75;58.58;100211.54;236553;1193;138957;-59
2021/11/06 10:23:17;;;;;;;6.20;4.20;;;;;;;10.89;58.56;100209.83;236189;1193;139528;-61
2021/11/06 10:28:22;;;;;;;7.70;4.40;;;;;;;11.03;58.07;100201.02;236546;1193;139424;-59
2021/11/06 10:33:25;;;;;;;5.60;4.10;;;;;;;11.13;57.89;100202.19;236380;1193;138579;-59
2021/11/06 10:38:28;;;;;;;7.00;3.40;;;;;;;11.22;57.63;100191.81;236629;1193;140557;-58
2021/11/06 10:43:32;;;;;;;5.50;3.30;;;;;;;11.34;57.19;100185.92;236570;1195;139633;-59
2021/11/06 10:48:35;;;;;;;4.90;3.50;;;;;;;11.43;57.08;100185.70;236468;1195;138753;-58
2021/11/06 10:53:39;;;;;;;3.90;3.00;;;;;;;11.47;56.75;100175.91;236396;1193;138888;-56
2021/11/06 10:58:43;;;;;;;6.00;3.50;;;;;;;11.46;56.44;100157.48;236239;1193;138875;-60
2021/11/06 11:03:48;;;;;;;4.80;2.80;;;;;;;11.50;56.60;100158.15;236568;1193;138227;-61
2021/11/06 11:08:54;;;;;;;4.80;3.10;;;;;;;11.55;55.96;100157.91;236699;1190;138304;-57
2021/11/06 11:14:02;;;;;;;;;;;;;;;11.53;55.42;100152.85;236560;1193;139419;-59
2021/11/06 11:19:12;;;;;;;8.50;6.20;;;;;;;11.53;55.22;100149.33;235945;1193;126527;-57
2021/11/06 11:24:17;;;;;;;3.70;2.70;;;;;;;11.59;55.18;100143.14;235731;1193;138580;-59
2021/11/06 11:29:26;;;;;;;4.70;2.90;;;;;;;11.68;55.16;100138.27;236345;1193;139787;-59
2021/11/06 11:34:30;;;;;;;5.90;3.60;;;;;;;11.86;54.77;100138.81;236242;1193;139353;-59
2021/11/06 11:39:34;;;;;;;4.70;3.10;;;;;;;12.02;54.65;100138.41;236578;1193;139243;-60
2021/11/06 11:44:56;;;;;;;4.40;2.80;;;;;;;12.20;54.24;100127.91;236336;1193;138817;-58
2021/11/06 11:50:02;;;;;;;6.20;2.40;;;;;;;12.21;53.76;100130.69;236551;1193;139039;-59
2021/11/06 11:55:14;;;;;;;3.50;2.40;;;;;;;12.27;53.28;100118.79;236294;1193;139527;-59
2021/11/06 12:00:17;;;;;;;4.00;2.40;;;;;;;12.32;53.03;100114.83;236463;1193;139714;-59
2021/11/06 12:05:23;;;;;;;4.00;2.30;;;;;;;12.28;52.91;100120.16;236493;1193;138564;-60
2021/11/06 12:10:35;;;;;;;3.50;2.00;;;;;;;12.28;52.72;100123.92;236519;1193;138976;-59
2021/11/06 12:15:57;;;;;;;4.80;1.80;;;;;;;12.26;52.09;100116.71;236225;1193;139267;-59
2021/11/06 12:26:12;;;;;;;6.70;2.30;;;;;;;12.32;52.07;100106.63;236147;1193;138834;-57
2021/11/06 12:31:31;;;;;;;3.20;2.10;;;;;;;12.41;52.03;100110.44;236529;1193;140227;-60
2021/11/06 12:36:41;;;;;;;4.30;2.20;;;;;;;12.46;51.83;100109.77;236489;1193;139656;-60
2021/11/06 12:41:44;;;;;;;2.80;2.20;;;;;;;12.43;51.31;100105.54;236245;1193;138844;-59
2021/11/06 12:47:07;;;;;;;3.50;2.20;;;;;;;12.39;50.94;100099.84;236477;1193;139216;-60
2021/11/06 12:52:12;;;;;;;4.50;3.00;;;;;;;12.38;51.54;100089.61;236258;1193;140067;-60
2021/11/06 12:57:41;;;;;;;5.20;2.90;;;;;;;12.44;51.40;100091.75;236600;1193;139828;-59
2021/11/06 13:02:56;;;;;;;6.00;3.00;;;;;;;12.40;50.95;100084.84;236587;1193;139966;-60
2021/11/06 13:08:19;;;;;;;4.20;2.30;;;;;;;12.36;50.83;100079.73;236442;1193;139346;-58
2021/11/06 13:13:27;;;;;;;4.80;2.80;;;;;;;12.36;50.95;100073.30;236478;1193;140038;-59
2021/11/06 13:18:30;;;;;;;5.10;2.70;;;;;;;12.42;51.06;100068.89;236469;1193;139203;-57
2021/11/06 13:23:33;;;;;;;3.70;2.40;;;;;;;12.44;50.72;100066.50;236356;1193;139238;-61
2021/11/06 13:28:36;;;;;;;5.00;2.40;;;;;;;12.41;50.75;100059.14;236574;1193;140225;-60
2021/11/06 13:33:44;;;;;;;4.10;2.50;;;;;;;12.42;50.77;100060.91;235926;1193;139051;-59
2021/11/06 13:38:53;;;;;;;3.30;2.30;;;;;;;12.40;50.41;100051.36;236407;1193;139248;-61
2021/11/06 13:44:02;;;;;;;4.40;2.40;;;;;;;12.34;50.42;100042.82;235904;1193;139322;-60
2021/11/06 13:49:12;;;;;;;4.60;2.50;;;;;;;12.27;50.38;100044.42;235885;1193;139554;-60
2021/11/06 13:54:16;;;;;;;3.90;2.20;;;;;;;12.26;50.51;100042.69;236478;1193;139129;-60
2021/11/06 13:59:25;;;;;;;3.50;2.30;;;;;;;12.25;50.30;100040.42;236458;1187;141424;-59
2021/11/06 14:04:29;;;;;;;4.90;2.30;;;;;;;12.21;49.91;100034.42;236091;1195;139613;-59
2021/11/06 14:09:32;;;;;;;4.80;2.20;;;;;;;12.14;50.23;100035.35;236644;1193;138751;-59
2021/11/06 14:14:53;;;;;;;3.30;2.20;;;;;;;12.04;49.98;100037.08;236459;1193;139526;-58
2021/11/06 14:20:00;;;;;;;3.60;2.30;;;;;;;12.00;50.05;100033.75;236466;1193;139287;-59
2021/11/06 14:25:04;;;;;;;4.10;2.50;;;;;;;11.91;50.21;100029.98;236500;1194;139316;-58
2021/11/06 14:30:14;;;;;;;4.30;2.50;;;;;;;11.82;50.15;100029.11;236063;1193;142395;-58
2021/11/06 14:35:18;;;;;;;5.60;2.90;;;;;;;11.74;50.24;100022.77;236001;1193;139515;-59
2021/11/06 14:40:22;;;;;;;6.20;2.80;;;;;;;11.67;50.28;100019.92;235839;1195;139199;-56
2021/11/06 14:45:25;;;;;;;10.60;4.70;;;;;;;11.65;50.21;100023.41;236359;1194;139271;-58
2021/11/06 14:50:31;;;;;;;7.20;3.30;;;;;;;11.62;50.24;100022.30;235836;1194;139430;-59
2021/11/06 14:55:34;;;;;;;6.80;3.00;;;;;;;11.52;50.04;100026.02;236383;1193;139146;-58
2021/11/06 15:00:41;;;;;;;6.00;2.80;;;;;;;11.45;50.36;100030.66;236457;1193;139454;-57
2021/11/06 15:05:47;;;;;;;7.30;3.40;;;;;;;11.37;50.27;100038.85;236177;1195;142770;-60
2021/11/06 15:10:57;;;;;;;6.00;3.30;;;;;;;11.33;50.37;100045.98;235966;1195;139616;-59
2021/11/06 15:16:01;;;;;;;14.20;6.70;;;;;;;11.26;50.59;100038.48;236534;1194;138776;-58
2021/11/06 15:21:05;;;;;;;6.60;3.90;;;;;;;11.22;50.56;100028.38;236214;1193;139419;-59
2021/11/06 15:26:08;;;;;;;8.40;3.90;;;;;;;11.16;50.47;100021.27;236340;1194;138697;-57
2021/11/06 15:31:12;;;;;;;6.50;4.00;;;;;;;11.09;50.72;100019.27;236370;1193;138769;-57
2021/11/06 15:36:15;;;;;;;7.40;3.90;;;;;;;11.02;50.84;100025.63;236172;1193;139391;-60
2021/11/06 15:41:19;;;;;;;7.70;4.30;;;;;;;10.96;50.77;100026.81;236825;1193;138549;-53
2021/11/06 15:46:22;;;;;;;10.50;4.40;;;;;;;10.88;50.77;100022.20;236849;1193;139703;-57
2021/11/06 15:56:47;;;;;;;23.70;12.60;;;;;;;10.79;51.34;100029.19;236839;1193;139149;-56
2021/11/06 16:01:50;;;;;;;11.50;6.50;;;;;;;10.81;51.35;100029.98;236673;1193;138991;-56
2021/11/06 16:06:53;;;;;;;11.70;5.80;;;;;;;10.78;51.34;100029.80;236472;1193;139408;-57
2021/11/06 16:11:56;;;;;;;10.70;5.50;;;;;;;10.72;51.30;100032.92;236466;1193;139417;-59
2021/11/06 16:17:02;;;;;;;13.80;5.40;;;;;;;10.63;51.56;100034.59;236426;1193;139226;-58
2021/11/06 16:22:07;;;;;;;13.40;5.60;;;;;;;10.56;51.65;100037.02;236011;1193;139555;-59
2021/11/06 16:27:10;;;;;;;15.60;5.20;;;;;;;10.49;51.91;100041.08;236423;1195;138953;-57
2021/11/06 16:32:13;;;;;;;12.90;5.80;;;;;;;10.32;51.83;100045.20;235850;1195;140340;-57
2021/11/06 16:37:16;;;;;;;12.70;6.10;;;;;;;10.12;51.99;100052.10;235997;1195;139819;-59
2021/11/06 16:42:21;;;;;;;13.30;7.00;;;;;;;9.90;52.51;100052.51;235719;1195;139923;-57
2021/11/06 16:47:24;;;;;;;11.90;6.50;;;;;;;9.75;52.68;100058.30;236497;1194;139029;-59
2021/11/06 16:52:28;;;;;;;22.00;7.00;;;;;;;9.60;52.78;100065.11;236258;1195;138687;-57
2021/11/06 16:57:31;;;;;;;22.50;8.60;;;;;;;9.55;53.24;100065.54;236514;1193;138714;-58
2021/11/06 17:02:34;;;;;;;17.00;7.00;;;;;;;9.48;53.40;100061.90;236347;1194;139293;-59
2021/11/06 17:07:41;;;;;;;17.50;6.70;;;;;;;9.35;53.36;100059.43;236559;1193;138911;-58
2021/11/06 17:12:45;;;;;;;20.30;7.70;;;;;;;9.20;53.88;100062.50;236170;1194;139137;-60
2021/11/06 17:17:48;;;;;;;19.10;8.20;;;;;;;9.10;53.86;100065.39;236248;1194;138825;-59
2021/11/06 17:22:51;;;;;;;22.80;8.60;;;;;;;9.03;54.28;100074.70;236035;1193;138962;-60
2021/11/06 17:27:55;;;;;;;19.50;9.00;;;;;;;8.92;54.31;100073.89;236561;1194;138624;-59
2021/11/06 17:32:59;;;;;;;18.40;8.30;;;;;;;8.82;54.37;100070.55;236163;1194;138941;-57
2021/11/06 17:38:03;;;;;;;20.50;8.70;;;;;;;8.73;54.80;100062.73;236419;1193;139725;-57
2021/11/06 17:43:06;;;;;;;23.00;7.80;;;;;;;8.65;55.00;100063.23;236169;1195;139604;-59
2021/11/06 17:48:11;;;;;;;17.60;8.30;;;;;;;8.58;54.94;100063.67;236545;1193;138637;-57
2021/11/06 17:58:24;;;;;;;21.90;9.80;;;;;;;8.49;55.35;100061.02;236378;1193;138861;-59
2021/11/06 18:03:29;;;;;;;37.50;15.30;;;;;;;8.38;55.33;100056.24;236628;1193;139034;-58
2021/11/06 18:08:32;;;;;;;34.30;17.50;;;;;;;8.34;55.81;100049.83;236339;1194;140445;-56
2021/11/06 18:13:35;;;;;;;19.70;11.20;;;;;;;8.49;56.28;100048.09;235903;1195;138945;-59
2021/11/06 18:18:39;;;;;;;27.30;13.00;;;;;;;8.52;56.00;100048.14;236243;1194;139186;-58
2021/11/06 18:23:42;;;;;;;30.20;15.00;;;;;;;8.49;55.90;100041.70;235646;1194;139078;-59
2021/11/06 18:28:46;;;;;;;32.10;16.40;;;;;;;8.51;56.02;100036.67;235884;1195;139306;-62
2021/11/06 18:33:49;;;;;;;36.90;17.60;;;;;;;8.53;56.14;100034.51;236567;1190;138222;-61
2021/11/06 18:38:54;;;;;;;34.80;18.50;;;;;;;8.54;56.10;100027.56;236631;1193;138732;-61
2021/11/06 18:44:01;;;;;;;40.40;20.70;;;;;;;8.56;56.19;100021.11;236292;1193;138785;-60
2021/11/06 18:49:04;;;;;;;42.20;23.20;;;;;;;8.57;56.21;100018.08;236387;1193;139355;-60
2021/11/06 18:54:08;;;;;;;42.90;24.60;;;;;;;8.58;56.40;100012.92;236293;1193;140237;-59
2021/11/06 18:59:11;;;;;;;40.10;22.40;;;;;;;8.58;56.23;100011.48;236357;1193;138810;-59
2021/11/06 19:04:14;;;;;;;42.20;24.70;;;;;;;8.63;56.84;100018.55;236361;1193;140293;-63
2021/11/06 19:09:18;;;;;;;45.70;25.80;;;;;;;8.66;56.57;100023.36;236754;1194;139697;-64
2021/11/06 19:14:21;;;;;;;45.20;26.40;;;;;;;8.61;56.67;100031.34;236589;1193;138890;-61
2021/11/06 19:19:24;;;;;;;53.10;28.10;;;;;;;8.55;56.54;100032.66;236553;1193;138913;-60
2021/11/06 19:24:29;;;;;;;53.30;28.40;;;;;;;8.49;56.48;100031.08;236199;1194;138485;-57
2021/11/06 19:29:33;;;;;;;55.70;30.00;;;;;;;8.45;56.81;100027.02;236285;1193;138825;-59
2021/11/06 19:34:37;;;;;;;67.70;34.70;;;;;;;8.42;56.72;100012.08;236323;1193;138781;-60
2021/11/06 19:39:40;;;;;;;64.80;35.10;;;;;;;8.40;56.78;100005.44;236129;1193;138879;-59
2021/11/06 19:44:45;;;;;;;65.60;35.80;;;;;;;8.28;56.65;99997.36;236366;1193;138705;-61
2021/11/06 19:49:48;;;;;;;64.80;34.60;;;;;;;8.15;56.70;99987.08;236674;1193;138424;-61
2021/11/06 19:54:51;;;;;;;75.60;41.10;;;;;;;8.08;56.78;99989.98;236225;1194;138941;-59
2021/11/06 19:59:54;;;;;;;78.20;41.10;;;;;;;7.90;56.48;99993.10;235771;1195;138328;-59
2021/11/06 20:04:57;;;;;;;76.40;40.40;;;;;;;7.64;56.28;99992.77;236352;1193;138130;-61
2021/11/06 20:10:01;;;;;;;75.20;40.50;;;;;;;7.41;56.55;99997.46;236701;1194;138954;-64
2021/11/06 20:15:06;;;;;;;74.70;42.10;;;;;;;7.20;56.87;99999.92;236623;1193;138855;-62
2021/11/06 20:20:10;;;;;;;77.40;41.40;;;;;;;7.02;57.09;99998.91;236595;1193;139208;-60
2021/11/06 20:25:15;;;;;;;74.30;39.90;;;;;;;6.88;57.15;99989.84;236018;1193;139240;-60
2021/11/06 20:30:19;;;;;;;70.70;40.00;;;;;;;6.76;57.37;99982.80;236522;1193;138648;-63
2021/11/06 20:35:22;;;;;;;77.00;39.40;;;;;;;6.67;57.52;99980.45;236627;1193;138795;-60
2021/11/06 20:40:25;;;;;;;70.90;39.50;;;;;;;6.56;57.65;99982.17;236657;1193;138777;-64
2021/11/06 20:45:29;;;;;;;74.70;39.60;;;;;;;6.48;57.93;99990.02;236474;1193;139213;-60
2021/11/06 20:50:32;;;;;;;76.10;39.20;;;;;;;6.40;58.15;100002.40;236245;1193;138751;-60
2021/11/06 20:55:35;;;;;;;72.50;39.40;;;;;;;6.35;58.13;100005.20;236228;1194;139128;-65
2021/11/06 21:00:40;;;;;;;74.40;37.60;;;;;;;6.28;58.29;100004.86;236272;1195;139095;-61
2021/11/06 21:05:46;;;;;;;68.70;37.80;;;;;;;6.27;58.63;100000.85;236358;1194;139302;-60
2021/11/06 21:11:08;;;;;;;73.10;37.90;;;;;;;6.25;58.83;99996.85;235964;1194;138830;-58
2021/11/06 21:21:15;;;;;;;72.10;39.40;;;;;;;6.25;59.21;99993.33;235902;1195;139625;-60
2021/11/06 21:26:19;;;;;;;72.20;39.40;;;;;;;6.26;59.21;99979.73;236180;1195;139515;-61
2021/11/06 21:31:23;;;;;;;78.00;40.30;;;;;;;6.24;59.10;99964.46;235825;1195;138438;-60
2021/11/06 21:36:31;;;;;;;77.30;39.40;;;;;;;6.16;59.12;99960.98;236290;1195;138822;-60
2021/11/06 21:41:41;;;;;;;76.10;42.10;;;;;;;6.06;59.14;99971.16;236234;1195;139976;-62
2021/11/06 21:46:45;;;;;;;76.90;40.10;;;;;;;5.96;59.10;99976.71;236192;1195;138954;-61
2021/11/06 21:51:48;;;;;;;77.00;40.00;;;;;;;5.88;59.11;99969.70;236437;1195;138657;-61
2021/11/06 21:56:51;;;;;;;78.20;40.40;;;;;;;5.77;59.05;99963.66;236215;1193;138706;-60
2021/11/06 22:01:55;;;;;;;79.30;40.10;;;;;;;5.66;59.31;99950.73;236418;1194;138234;-61
2021/11/06 22:06:58;;;;;;;76.60;39.70;;;;;;;5.58;59.51;99945.52;236058;1193;138523;-62
2021/11/06 22:12:01;;;;;;;77.00;41.80;;;;;;;5.49;59.36;99945.58;236459;1187;138764;-61
2021/11/06 22:17:05;;;;;;;83.60;42.70;;;;;;;5.40;59.62;99949.16;236289;1195;138980;-60
2021/11/06 22:22:10;;;;;;;82.00;43.20;;;;;;;5.30;59.50;99943.08;236635;1193;139107;-59
2021/11/06 22:27:13;;;;;;;86.60;44.20;;;;;;;5.22;59.57;99938.72;236475;1195;138570;-56
2021/11/06 22:32:16;;;;;;;75.40;42.40;;;;;;;5.19;59.88;99929.83;236484;1193;139029;-59
2021/11/06 22:37:20;;;;;;;85.40;44.90;;;;;;;5.13;59.86;99916.98;236510;1193;138830;-60
2021/11/06 22:42:25;;;;;;;77.40;41.90;;;;;;;5.08;59.96;99901.60;236454;1195;138524;-59
2021/11/06 22:47:29;;;;;;;80.50;44.50;;;;;;;5.00;59.94;99888.27;236387;1193;139079;-59
2021/11/06 22:52:32;;;;;;;77.90;42.50;;;;;;;4.90;60.10;99879.73;236466;1195;139353;-60
2021/11/06 22:57:36;;;;;;;85.40;44.50;;;;;;;4.82;60.00;99877.83;236554;1195;138436;-59
2021/11/06 23:02:41;;;;;;;78.70;42.50;;;;;;;4.78;60.38;99871.42;235715;1195;139267;-60
2021/11/06 23:07:45;;;;;;;82.30;44.30;;;;;;;4.78;60.17;99874.24;236444;1194;141584;-57
2021/11/06 23:12:57;;;;;;;84.80;42.70;;;;;;;4.75;60.36;99883.11;236392;1195;139006;-62
2021/11/06 23:18:01;;;;;;;76.70;41.50;;;;;;;4.73;60.43;99872.60;236543;1193;139645;-61